Current Conditions
Light Rain
Showers



Pressure
1008.92 (hPa) - 29.79 (inHG)
Visibility

10.0 (km) - 6.2 (miles)
   Temperature
21  °C
70°F
18  °C
Dewpoint
83  %
 Humidity
   Wind Speed
14  km/h
8  kts
9  mph
4.0  m/s
   Wind Direction
 350°
Due North
   Airport Data
LGTS
Location Thessaloniki Macedonia International 85 km (52.83 mi)
Metar :LGTS 161850Z 35008KT 9999 -RA FEW010 FEW020TCU SCT025 21/18 Q1009 NOSIG
Tue 16th July 21:50 pm
   Raw Metar Info
Raw METAR is the most common format in the world for the transmission of observational weather data. It is highly standardized through the International Civil Aviation Organization (ICAO), which allows it to be understood throughout most of the world.
   API Info
Data Provided by
https://www.checkwx.com/weather/LGTS
   © Info
CSS/SVG/PHP scripts were developed by weather34.com for use in the weather34 template © 2015-2019

Guide Info provided by Metar-Wikipedia